createdAt,value
2017-12-04T00:00:46.704Z,95766.01
2017-12-04T00:03:16.406Z,95770.92
2017-12-04T00:05:43.973Z,95761.31
2017-12-04T00:08:11.588Z,95765.15
2017-12-04T00:10:39.429Z,95762.52
2017-12-04T00:13:07.013Z,95771.85
2017-12-04T00:15:34.702Z,95764.94
2017-12-04T00:18:02.321Z,95767.78
2017-12-04T00:20:30.109Z,95761.09
2017-12-04T00:22:57.723Z,95759.47
2017-12-04T00:25:25.467Z,95778.52
2017-12-04T00:27:53.253Z,95785.34
2017-12-04T00:30:20.881Z,95789.99
2017-12-04T00:32:48.822Z,95796.25
2017-12-04T00:35:16.616Z,95789.86
2017-12-04T00:37:44.498Z,95797.27
2017-12-04T00:40:12.357Z,95793.76
2017-12-04T00:42:39.931Z,95799.29
2017-12-04T00:45:07.709Z,95790.39
2017-12-04T00:47:35.463Z,95793.79
2017-12-04T00:50:03.040Z,95792.42
2017-12-04T00:52:30.642Z,95799.28
2017-12-04T00:54:58.198Z,95799.45
2017-12-04T00:57:26.021Z,95801.39
2017-12-04T00:59:53.624Z,95797.73
2017-12-04T01:02:21.454Z,95799.73
2017-12-04T01:04:51.148Z,95796.61
2017-12-04T01:07:24.263Z,95797.27
2017-12-04T01:09:52.255Z,95795.05
2017-12-04T01:12:19.839Z,95795.80
2017-12-04T01:14:47.446Z,95794.33
2017-12-04T01:17:15.276Z,95791.88
2017-12-04T01:19:42.832Z,95795.50
2017-12-04T01:22:10.694Z,95800.38
2017-12-04T01:24:38.479Z,95791.92
2017-12-04T01:27:06.252Z,95790.41
2017-12-04T01:29:33.850Z,95786.06
2017-12-04T01:32:01.454Z,95785.91
2017-12-04T01:34:29.012Z,95779.55
2017-12-04T01:36:56.585Z,95782.08
2017-12-04T01:39:24.218Z,95777.62
2017-12-04T01:41:51.770Z,95784.92
2017-12-04T01:44:19.314Z,95782.58
2017-12-04T01:46:46.901Z,95786.77
2017-12-04T01:49:14.576Z,95789.09
2017-12-04T01:51:42.197Z,95795.13
2017-12-04T01:54:09.826Z,95791.61
2017-12-04T01:56:37.461Z,95793.61
2017-12-04T01:59:05.107Z,95791.44
2017-12-04T02:01:32.701Z,95783.30
2017-12-04T02:04:00.287Z,95787.86
2017-12-04T02:06:27.875Z,95786.70
2017-12-04T02:08:55.872Z,95787.70
2017-12-04T02:11:23.474Z,95803.66
2017-12-04T02:13:51.033Z,95798.97
2017-12-04T02:16:18.634Z,95799.22
2017-12-04T02:18:46.496Z,95809.00
2017-12-04T02:21:14.280Z,95799.97
2017-12-04T02:23:41.905Z,95803.41
2017-12-04T02:26:09.505Z,95800.19
2017-12-04T02:28:37.302Z,95798.67
2017-12-04T02:31:05.436Z,95800.78
2017-12-04T02:33:33.081Z,95796.23
2017-12-04T02:36:01.409Z,95794.05
2017-12-04T02:38:29.054Z,95804.07
2017-12-04T02:40:57.104Z,95810.91
2017-12-04T02:43:24.731Z,95815.44
2017-12-04T02:45:53.176Z,95808.34
2017-12-04T02:48:20.965Z,95795.36
2017-12-04T02:50:48.805Z,95793.98
2017-12-04T02:53:16.470Z,95796.39
2017-12-04T02:55:44.060Z,95802.05
2017-12-04T02:58:11.918Z,95808.00
2017-12-04T03:00:39.525Z,95816.40
2017-12-04T03:03:07.384Z,95818.50
2017-12-04T03:05:35.839Z,95819.95
2017-12-04T03:08:03.955Z,95811.92
2017-12-04T03:10:32.154Z,95816.53
2017-12-04T03:12:59.706Z,95810.59
2017-12-04T03:15:27.321Z,95813.77
2017-12-04T03:17:55.135Z,95814.39
2017-12-04T03:20:22.755Z,95823.30
2017-12-04T03:22:50.402Z,95811.51
2017-12-04T03:25:18.218Z,95813.95
2017-12-04T03:27:45.865Z,95811.68
2017-12-04T03:30:13.463Z,95814.39
2017-12-04T03:32:41.317Z,95807.22
2017-12-04T03:35:08.930Z,95803.33
2017-12-04T03:37:36.607Z,95805.72
2017-12-04T03:40:04.227Z,95803.28
2017-12-04T03:42:31.857Z,95804.75
2017-12-04T03:44:59.463Z,95810.64
2017-12-04T03:47:27.129Z,95801.36
2017-12-04T03:49:54.747Z,95805.85
2017-12-04T03:52:22.528Z,95807.08
2017-12-04T03:54:50.293Z,95807.16
2017-12-04T03:57:17.825Z,95802.37
2017-12-04T03:59:45.413Z,95803.62
2017-12-04T04:02:13.021Z,95808.69
2017-12-04T04:04:40.779Z,95798.53
2017-12-04T04:07:08.743Z,95801.83
2017-12-04T04:09:36.328Z,95806.17
2017-12-04T04:12:04.083Z,95796.66
2017-12-04T04:14:31.881Z,95807.89
2017-12-04T04:16:59.467Z,95812.00
2017-12-04T04:19:27.086Z,95807.13
2017-12-04T04:21:54.685Z,95814.65
2017-12-04T04:24:22.289Z,95808.58
2017-12-04T04:26:49.859Z,95812.99
2017-12-04T04:29:18.229Z,95810.85
2017-12-04T04:31:45.981Z,95807.61
2017-12-04T04:34:13.800Z,95810.61
2017-12-04T04:36:41.613Z,95814.12
2017-12-04T04:39:09.423Z,95813.85
2017-12-04T04:41:37.003Z,95817.35
2017-12-04T04:44:04.569Z,95813.45
2017-12-04T04:46:32.413Z,95814.27
2017-12-04T04:49:00.199Z,95816.57
2017-12-04T04:51:27.782Z,95817.83
2017-12-04T04:53:55.616Z,95816.02
2017-12-04T04:56:23.205Z,95814.84
2017-12-04T04:58:50.999Z,95817.88
2017-12-04T05:01:18.613Z,95821.71
2017-12-04T05:03:46.160Z,95829.36
2017-12-04T05:06:13.926Z,95833.20
2017-12-04T05:08:41.551Z,95831.73
2017-12-04T05:11:09.126Z,95825.07
2017-12-04T05:13:36.947Z,95835.30
2017-12-04T05:16:04.598Z,95833.01
2017-12-04T05:18:32.431Z,95832.09
2017-12-04T05:21:00.209Z,95821.34
2017-12-04T05:23:27.813Z,95835.04
2017-12-04T05:25:55.362Z,95844.91
2017-12-04T05:28:23.238Z,95829.72
2017-12-04T05:30:51.054Z,95838.63
2017-12-04T05:33:18.605Z,95842.81
2017-12-04T05:35:46.609Z,95839.02
2017-12-04T05:38:14.214Z,95837.08
2017-12-04T05:40:41.781Z,95844.26
2017-12-04T05:43:10.290Z,95853.77
2017-12-04T05:45:37.911Z,95832.09
2017-12-04T05:48:05.507Z,95847.21
2017-12-04T05:50:33.293Z,95846.70
2017-12-04T05:53:00.885Z,95853.61
2017-12-04T05:55:28.581Z,95859.84
2017-12-04T05:57:56.369Z,95850.67
2017-12-04T06:00:23.966Z,95847.23
2017-12-04T06:02:51.470Z,95853.80
2017-12-04T06:05:19.084Z,95853.14
2017-12-04T06:07:46.651Z,95850.39
2017-12-04T06:10:14.212Z,95847.73
2017-12-04T06:12:42.106Z,95847.00
2017-12-04T06:15:09.687Z,95859.69
2017-12-04T06:17:37.432Z,95867.64
2017-12-04T06:20:04.997Z,95861.36
2017-12-04T06:22:32.562Z,95860.47
2017-12-04T06:25:01.289Z,95867.34
2017-12-04T06:27:29.138Z,95867.03
2017-12-04T06:29:56.737Z,95870.13
2017-12-04T06:32:24.305Z,95881.30
2017-12-04T06:34:51.860Z,95872.58
2017-12-04T06:37:19.425Z,95871.97
2017-12-04T06:39:47.212Z,95884.02
2017-12-04T06:42:15.642Z,95880.83
2017-12-04T06:44:43.160Z,95884.56
2017-12-04T06:47:10.710Z,95882.91
2017-12-04T06:49:38.222Z,95885.14
2017-12-04T06:52:05.787Z,95888.56
2017-12-04T06:54:33.352Z,95891.47
2017-12-04T06:57:00.918Z,95895.89
2017-12-04T06:59:28.890Z,95899.69
2017-12-04T07:01:56.573Z,95899.95
2017-12-04T07:04:24.348Z,95902.86
2017-12-04T07:06:51.963Z,95907.34
2017-12-04T07:09:19.534Z,95905.34
2017-12-04T07:11:47.113Z,95899.38
2017-12-04T07:14:14.877Z,95892.84
2017-12-04T07:16:42.653Z,95899.44
2017-12-04T07:19:10.421Z,95893.16
2017-12-04T07:21:37.961Z,95894.97
2017-12-04T07:24:05.830Z,95903.80
2017-12-04T07:26:33.413Z,95905.42
2017-12-04T07:29:01.154Z,95908.80
2017-12-04T07:31:28.769Z,95911.30
2017-12-04T07:33:56.362Z,95920.12
2017-12-04T07:36:23.993Z,95915.91
2017-12-04T07:38:52.352Z,95909.39
2017-12-04T07:41:21.025Z,95904.92
2017-12-04T07:43:48.617Z,95914.54
2017-12-04T07:46:16.619Z,95917.74
2017-12-04T07:48:44.187Z,95925.94
2017-12-04T07:51:12.685Z,95925.81
2017-12-04T07:53:40.322Z,95924.33
2017-12-04T07:56:08.091Z,95932.17
2017-12-04T07:58:35.656Z,95928.27
2017-12-04T08:01:03.244Z,95921.52
2017-12-04T08:03:30.822Z,95931.37
2017-12-04T08:05:58.632Z,95935.75
2017-12-04T08:08:28.872Z,95933.16
2017-12-04T08:10:56.623Z,95932.59
2017-12-04T08:13:24.398Z,95939.45
2017-12-04T08:15:51.971Z,95947.78
2017-12-04T08:18:19.545Z,95941.13
2017-12-04T08:20:47.214Z,95948.67
2017-12-04T08:23:14.779Z,95955.41
2017-12-04T08:25:43.373Z,95945.78
2017-12-04T08:28:10.979Z,95956.77
2017-12-04T08:30:38.572Z,95964.45
2017-12-04T08:33:06.342Z,95960.02
2017-12-04T08:35:33.870Z,95966.34
2017-12-04T08:38:01.415Z,95957.19
2017-12-04T08:40:29.202Z,95973.95
2017-12-04T08:42:56.758Z,95972.59
2017-12-04T08:45:24.425Z,95964.73
2017-12-04T08:47:52.216Z,95963.00
2017-12-04T08:50:19.968Z,95975.56
2017-12-04T08:52:50.910Z,95964.72
2017-12-04T08:55:18.561Z,95971.13
2017-12-04T08:57:46.158Z,95971.00
2017-12-04T09:00:14.529Z,95936.70
2017-12-04T09:02:42.390Z,95957.16
2017-12-04T09:05:10.166Z,95955.77
2017-12-04T09:07:38.158Z,95962.59
2017-12-04T09:10:05.754Z,95957.14
2017-12-04T09:12:33.681Z,95959.02
2017-12-04T09:15:02.229Z,95952.16
2017-12-04T09:17:30.018Z,95955.28
2017-12-04T09:19:58.678Z,95952.19
2017-12-04T09:22:26.995Z,95955.45
2017-12-04T09:24:54.872Z,95954.16
2017-12-04T09:27:22.671Z,95955.03
2017-12-04T09:29:50.243Z,95953.84
2017-12-04T09:32:18.058Z,95949.62
2017-12-04T09:34:46.551Z,95951.30
2017-12-04T09:37:14.450Z,95944.91
2017-12-04T09:39:42.271Z,95941.49
2017-12-04T09:42:10.027Z,95935.26
2017-12-04T09:44:37.817Z,95936.69
2017-12-04T09:47:05.578Z,95933.34
2017-12-04T09:49:33.412Z,95936.86
2017-12-04T09:52:01.183Z,95939.70
2017-12-04T09:54:29.002Z,95935.00
2017-12-04T09:56:56.611Z,95945.90
2017-12-04T09:59:24.152Z,95942.31
2017-12-04T10:01:51.975Z,95930.33
2017-12-04T10:04:19.781Z,95942.82
2017-12-04T10:06:47.571Z,95929.73
2017-12-04T10:09:15.459Z,95936.95
2017-12-04T10:11:43.125Z,95930.38
2017-12-04T10:14:10.713Z,95927.76
2017-12-04T10:16:38.494Z,95929.51
2017-12-04T10:19:06.251Z,95924.94
2017-12-04T10:21:33.837Z,95931.60
2017-12-04T10:24:01.386Z,95920.11
2017-12-04T10:26:28.978Z,95916.55
2017-12-04T10:28:57.943Z,95915.46
2017-12-04T10:31:25.542Z,95925.27
2017-12-04T10:33:53.104Z,95925.67
2017-12-04T10:36:20.672Z,95925.53
2017-12-04T10:38:48.297Z,95910.62
2017-12-04T10:41:16.073Z,95916.63
2017-12-04T10:43:43.878Z,95928.34
2017-12-04T10:46:11.842Z,95925.13
2017-12-04T10:48:41.314Z,95930.20
2017-12-04T10:51:08.830Z,95919.61
2017-12-04T10:53:36.866Z,95918.00
2017-12-04T10:56:05.106Z,95919.89
2017-12-04T10:58:32.890Z,95915.95
2017-12-04T11:01:00.462Z,95911.19
2017-12-04T11:03:28.043Z,95911.98
2017-12-04T11:05:55.619Z,95928.98
2017-12-04T11:08:23.327Z,95914.97
2017-12-04T11:10:51.108Z,95917.90
2017-12-04T11:13:18.693Z,95922.17
2017-12-04T11:15:46.318Z,95916.45
2017-12-04T11:18:14.080Z,95907.80
2017-12-04T11:20:41.866Z,95901.63
2017-12-04T11:23:09.454Z,95912.35
2017-12-04T11:25:37.806Z,95907.88
2017-12-04T11:28:05.581Z,95904.52
2017-12-04T11:30:33.403Z,95911.05
2017-12-04T11:33:00.942Z,95904.44
2017-12-04T11:35:28.771Z,95913.58
2017-12-04T11:37:56.366Z,95902.00
2017-12-04T11:40:23.953Z,95902.49
2017-12-04T11:42:51.752Z,95903.13
2017-12-04T11:45:19.357Z,95890.35
2017-12-04T11:47:47.191Z,95909.60
2017-12-04T11:50:15.269Z,95894.00
2017-12-04T11:52:42.929Z,95896.52
2017-12-04T11:55:10.802Z,95888.53
2017-12-04T11:57:38.375Z,95896.62
2017-12-04T12:00:09.166Z,95889.20
2017-12-04T12:02:37.286Z,95897.86
2017-12-04T12:05:05.140Z,95895.32
2017-12-04T12:07:32.925Z,95894.84
2017-12-04T12:10:00.488Z,95886.81
2017-12-04T12:12:28.089Z,95876.60
2017-12-04T12:14:55.775Z,95883.92
2017-12-04T12:17:23.542Z,95874.73
2017-12-04T12:19:51.107Z,95881.83
2017-12-04T12:22:18.698Z,95880.80
2017-12-04T12:24:46.251Z,95880.61
2017-12-04T12:27:14.024Z,95885.42
2017-12-04T12:29:41.653Z,95883.88
2017-12-04T12:32:09.237Z,95885.59
2017-12-04T12:34:37.042Z,95874.92
2017-12-04T12:37:04.612Z,95878.95
2017-12-04T12:39:32.346Z,95885.71
2017-12-04T12:42:00.097Z,95877.09
2017-12-04T12:44:27.693Z,95887.47
2017-12-04T12:46:55.272Z,95884.84
2017-12-04T12:49:23.078Z,95869.86
2017-12-04T12:51:50.861Z,95881.80
2017-12-04T12:54:18.434Z,95878.45
2017-12-04T12:56:46.402Z,95886.73
2017-12-04T12:59:14.219Z,95886.14
2017-12-04T13:01:41.885Z,95884.94
2017-12-04T13:04:09.477Z,95878.22
2017-12-04T13:06:36.994Z,95882.78
2017-12-04T13:09:04.650Z,95881.01
2017-12-04T13:11:32.376Z,95896.54
2017-12-04T13:14:00.792Z,95901.89
2017-12-04T13:16:28.411Z,95910.80
2017-12-04T13:18:55.992Z,95905.19
2017-12-04T13:21:24.581Z,95918.78
2017-12-04T13:23:52.195Z,95911.53
2017-12-04T13:26:19.980Z,95904.91
2017-12-04T13:28:47.638Z,95918.28
2017-12-04T13:31:15.622Z,95922.97
2017-12-04T13:33:55.225Z,95910.08
2017-12-04T13:36:34.870Z,95910.91
2017-12-04T13:39:03.393Z,95922.38
2017-12-04T13:41:30.960Z,95929.75
2017-12-04T13:43:58.535Z,95929.36
2017-12-04T13:46:26.181Z,95927.38
2017-12-04T13:48:53.945Z,95936.05
2017-12-04T13:51:21.507Z,95937.08
2017-12-04T13:53:49.029Z,95935.64
2017-12-04T13:56:17.479Z,95933.77
2017-12-04T13:58:46.884Z,95935.86
2017-12-04T14:01:14.606Z,95936.06
2017-12-04T14:03:42.504Z,95936.14
2017-12-04T14:06:10.083Z,95924.17
2017-12-04T14:08:37.699Z,95935.49
2017-12-04T14:11:05.454Z,95936.63
2017-12-04T14:13:32.973Z,95929.94
2017-12-04T14:16:00.971Z,95918.62
2017-12-04T14:18:28.748Z,95921.23
2017-12-04T14:20:56.562Z,95928.33
2017-12-04T14:23:24.395Z,95930.13
2017-12-04T14:25:51.962Z,95931.55
2017-12-04T14:28:19.743Z,95929.02
2017-12-04T14:30:47.388Z,95937.61
2017-12-04T14:33:15.182Z,95932.05
2017-12-04T14:35:42.790Z,95935.89
2017-12-04T14:38:10.325Z,95931.77
2017-12-04T14:40:38.332Z,95935.25
2017-12-04T14:43:06.129Z,95938.31
2017-12-04T14:45:33.732Z,95931.37
2017-12-04T14:48:01.492Z,95933.64
2017-12-04T14:50:29.279Z,95934.07
2017-12-04T14:52:56.862Z,95932.86
2017-12-04T14:55:25.193Z,95935.00
2017-12-04T14:57:52.842Z,95930.45
2017-12-04T15:00:20.401Z,95933.91
2017-12-04T15:02:47.970Z,95937.91
2017-12-04T15:05:15.554Z,95939.25
2017-12-04T15:07:43.357Z,95955.23
2017-12-04T15:10:11.161Z,95956.31
2017-12-04T15:12:39.550Z,95954.58
2017-12-04T15:15:07.351Z,95941.78
2017-12-04T15:17:35.022Z,95955.90
2017-12-04T15:20:02.641Z,95956.98
2017-12-04T15:26:53.614Z,95965.86
2017-12-04T15:29:21.359Z,95945.23
2017-12-04T15:31:48.929Z,95961.87
2017-12-04T15:34:17.303Z,95951.38
2017-12-04T15:36:45.076Z,95956.95
2017-12-04T15:39:13.219Z,95950.95
2017-12-04T15:41:41.011Z,95960.96
2017-12-04T15:44:08.569Z,95964.94
2017-12-04T15:46:36.181Z,95958.16
2017-12-04T15:49:03.750Z,95959.09
2017-12-04T15:51:31.666Z,95968.41
2017-12-04T15:53:59.885Z,95961.47
2017-12-04T15:56:28.340Z,95980.89
2017-12-04T15:58:55.907Z,95975.58
2017-12-04T16:01:23.492Z,95972.11
2017-12-04T16:03:51.105Z,95967.34
2017-12-04T16:06:18.854Z,95958.79
2017-12-04T16:08:46.624Z,95958.67
2017-12-04T16:11:14.398Z,95970.78
2017-12-04T16:13:42.046Z,95967.69
2017-12-04T16:16:09.642Z,95975.69
2017-12-04T16:18:37.174Z,95976.55
2017-12-04T16:21:05.036Z,95984.61
2017-12-04T16:23:32.667Z,95999.47
2017-12-04T16:26:00.293Z,95998.29
2017-12-04T16:28:28.159Z,95986.42
2017-12-04T16:30:56.205Z,95993.24
2017-12-04T16:33:23.858Z,95995.96
2017-12-04T16:35:51.622Z,96003.45
2017-12-04T16:38:19.741Z,96001.73
2017-12-04T16:40:47.355Z,95998.37
2017-12-04T16:43:14.957Z,96001.83
2017-12-04T16:45:44.315Z,95998.36
2017-12-04T16:48:15.262Z,96017.66
2017-12-04T16:50:44.018Z,96015.41
2017-12-04T16:53:11.666Z,96008.07
2017-12-04T16:55:39.913Z,96012.42
2017-12-04T16:58:07.459Z,96007.11
2017-12-04T17:00:35.914Z,96011.59
2017-12-04T17:03:03.902Z,96023.98
2017-12-04T17:05:31.442Z,96018.39
2017-12-04T17:07:59.030Z,96018.40
2017-12-04T17:10:26.805Z,96015.86
2017-12-04T17:12:54.426Z,96030.67
2017-12-04T17:15:23.042Z,96012.44
2017-12-04T17:17:50.854Z,96020.04
2017-12-04T17:20:20.094Z,96024.16
2017-12-04T17:22:47.799Z,96016.26
2017-12-04T17:25:15.369Z,96024.95
2017-12-04T17:27:43.150Z,96032.69
2017-12-04T17:30:10.770Z,96026.97
2017-12-04T17:32:38.329Z,96032.31
2017-12-04T17:35:06.077Z,96036.38
2017-12-04T17:37:33.765Z,96031.98
2017-12-04T17:40:01.527Z,96044.29
2017-12-04T17:42:29.325Z,96038.39
2017-12-04T17:44:57.426Z,96043.72
2017-12-04T17:47:25.047Z,96041.56
2017-12-04T17:49:52.818Z,96047.14
2017-12-04T17:52:20.448Z,96047.33
2017-12-04T17:54:47.990Z,96049.77
2017-12-04T17:57:15.714Z,96050.78
2017-12-04T17:59:43.342Z,96051.97
2017-12-04T18:02:11.202Z,96059.14
2017-12-04T18:04:38.732Z,96054.86
2017-12-04T18:07:07.190Z,96056.20
2017-12-04T18:09:34.960Z,96055.78
2017-12-04T18:12:02.782Z,96060.91
2017-12-04T18:14:30.639Z,96056.90
2017-12-04T18:16:59.476Z,96063.12
2017-12-04T18:19:28.986Z,96068.26
2017-12-04T18:21:58.532Z,96072.76
2017-12-04T18:24:30.351Z,96068.20
2017-12-04T18:27:00.871Z,96061.07
2017-12-04T18:29:35.433Z,96075.00
2017-12-04T18:32:03.414Z,96079.55
2017-12-04T18:34:35.231Z,96081.50
2017-12-04T18:37:02.838Z,96098.95
2017-12-04T18:39:32.232Z,96088.42
2017-12-04T18:41:59.883Z,96087.75
2017-12-04T18:44:28.281Z,96085.20
2017-12-04T18:46:56.021Z,96090.16
2017-12-04T18:49:25.778Z,96089.91
2017-12-04T18:51:53.505Z,96091.58
2017-12-04T18:54:21.218Z,96094.94
2017-12-04T18:56:48.867Z,96100.83
2017-12-04T18:59:17.204Z,96104.23
2017-12-04T19:01:46.686Z,96105.11
2017-12-04T19:04:14.393Z,96106.28
2017-12-04T19:06:42.430Z,96104.13
2017-12-04T19:09:17.699Z,96098.16
2017-12-04T19:11:45.874Z,96098.48
2017-12-04T19:14:16.345Z,96090.30
2017-12-04T19:17:01.469Z,96100.94
2017-12-04T19:19:31.340Z,96098.20
2017-12-04T19:21:59.815Z,96106.73
2017-12-04T19:24:27.629Z,96093.36
2017-12-04T19:27:00.711Z,96095.81
2017-12-04T19:29:36.651Z,96097.97
2017-12-04T19:35:21.881Z,96107.18
2017-12-04T19:37:49.594Z,96111.36
2017-12-04T19:40:17.323Z,96113.54
2017-12-04T19:42:45.048Z,96110.92
2017-12-04T19:45:12.807Z,96116.31
2017-12-04T19:47:41.995Z,96118.08
2017-12-04T19:50:09.620Z,96116.56
2017-12-04T19:52:38.212Z,96125.24
2017-12-04T19:55:06.034Z,96134.88
2017-12-04T19:57:41.465Z,96124.48
2017-12-04T20:00:09.974Z,96132.34
2017-12-04T20:02:38.496Z,96128.31
2017-12-04T20:05:10.484Z,96137.61
2017-12-04T20:07:45.533Z,96142.80
2017-12-04T20:27:33.557Z,96149.66
2017-12-04T20:30:01.253Z,96138.99
2017-12-04T20:32:29.178Z,96134.74
2017-12-04T20:34:59.220Z,96144.06
2017-12-04T20:37:27.562Z,96142.09
2017-12-04T20:39:55.472Z,96141.48
2017-12-04T20:42:24.206Z,96144.64
2017-12-04T20:44:51.950Z,96127.22
2017-12-04T20:47:28.019Z,96140.59
2017-12-04T20:50:03.532Z,96148.64
2017-12-04T20:52:31.424Z,96136.70
2017-12-04T20:54:59.088Z,96153.30
2017-12-04T20:57:27.969Z,96137.56
2017-12-04T20:59:58.290Z,96149.97
2017-12-04T21:02:34.469Z,96148.48
2017-12-04T21:05:02.873Z,96141.86
2017-12-04T21:07:31.335Z,96133.48
2017-12-04T21:10:10.947Z,96136.52
2017-12-04T21:12:38.616Z,96134.03
2017-12-04T21:15:18.106Z,96147.20
2017-12-04T21:17:45.949Z,96148.27
2017-12-04T21:20:19.878Z,96142.03
2017-12-04T21:22:49.138Z,96147.83
2017-12-04T21:29:00.786Z,96157.30
2017-12-04T21:38:30.798Z,96147.94
2017-12-04T21:41:04.778Z,96139.60
2017-12-04T21:43:52.234Z,96151.70
2017-12-04T21:56:25.938Z,96146.07
2017-12-04T21:58:55.196Z,96144.70
2017-12-04T22:01:23.512Z,96147.62
2017-12-04T22:06:24.042Z,96144.84
2017-12-04T22:11:26.940Z,96152.77
2017-12-04T22:13:54.692Z,96149.52
2017-12-04T22:16:22.346Z,96154.66
2017-12-04T22:18:49.973Z,96151.71
2017-12-04T22:21:18.359Z,96156.95
2017-12-04T22:23:45.942Z,96157.11
2017-12-04T22:26:40.573Z,96181.39
